Overview Statistics Trail Chart Weather Telemetry Raw packets
 

This is the latest recevied weather packets stored in our database for station/object KGRR-WX. If no packets are shown the sender has not sent any weather packets the latest 10 day(s).

<< 16 17 18 19 20 21 22 >>
Time Temp. Humidity Pressure Rain* Wind** Luminosity Snow
1788244223 21.11° C 89% 984.1 hPa 0 mm - - -
1788243310 21.11° C 89% 984.1 hPa 0 mm - - -
1788242410 21.11° C 89% 984.1 hPa 0 mm - - -
1788241510 21.11° C 88% 984.4 hPa 0 mm - - -
1788240610 21.11° C 89% 984.1 hPa 0 mm - - -
1788239705 21.11° C 89% 984 hPa 0 mm - - -
1788238811 21.11° C 89% 984 hPa 0 mm - - -
1788237910 21.67° C 85% 984.4 hPa 0 mm - - -
1788237005 21.67° C 85% 984.2 hPa 0 mm - - -
1788236110 21.67° C 85% 984.2 hPa 0 mm - - -
1788235211 21.67° C 85% 984.2 hPa 0 mm - - -
1788234309 21.67° C 84% 984.3 hPa 0 mm - - -
1788233410 22.22° C 86% 984.4 hPa 0 mm - - -
1788232510 21.67° C 86% 984.4 hPa 0 mm - - -
1788231610 21.67° C 86% 984.4 hPa 0 mm - - -
1788230710 22.22° C 84% 985.3 hPa 0 mm - - -
1788229809 22.22° C 85% 984.8 hPa 0 mm - - -
1788228909 22.78° C 85% 984.8 hPa 0 mm - - -
1788228010 22.78° C 85% 984.8 hPa 0 mm - - -
1788227109 22.78° C 87% 984.9 hPa 0 mm - - -
1788226207 22.78° C 87% 984.9 hPa 0 mm - - -
1788225309 22.22° C 87% 984.8 hPa 0 mm - - -
1788224410 22.78° C 87% 984.8 hPa 0 mm - - -
1788223509 22.78° C 79% 985 hPa 0 mm - - -
1788222608 23.89° C 81% 984.3 hPa 0 mm - - -

* Rain latest hour (hover to see other rain measurements)
** Current wind speed in m/s (hover to see current wind gust speed)